Time;durP1;ratioP1;P1;durP2;ratioP2;P2;SDS_P1;SDS_P2;PMS_P1;PMS_P2;Temp;Humidity;BMP_temperature;BMP_pressure;BME280_temperature;BME280_humidity;BME280_pressure;Samples;Min_cycle;Max_cycle;Signal;HPM_P1;HPM_P2
2022/11/10 00:00:47;;;;;;;17.00;11.10;;;5.20;99.90;;;;;;5080256;28;20981;-78
2022/11/10 00:03:14;;;;;;;21.83;11.47;;;5.20;99.90;;;;;;5071516;28;20519;-79
2022/11/10 00:05:41;;;;;;;16.97;11.40;;;5.20;99.90;;;;;;5085614;28;20516;-79
2022/11/10 00:08:11;;;;;;;14.33;11.27;;;5.20;99.90;;;;;;5084579;28;20459;-78
2022/11/10 00:13:22;;;;;;;14.30;10.97;;;5.10;99.90;;;;;;5070966;28;20434;-79
2022/11/10 00:18:33;;;;;;;15.50;11.13;;;5.20;99.90;;;;;;5071934;28;21031;-79
2022/11/10 00:21:06;;;;;;;17.80;11.70;;;5.20;99.90;;;;;;5073461;28;20510;-78
2022/11/10 00:23:32;;;;;;;18.17;11.80;;;5.20;99.90;;;;;;5079710;28;21129;-79
2022/11/10 00:26:00;;;;;;;21.80;14.63;;;5.20;99.90;;;;;;5074101;28;20525;-78
2022/11/10 00:28:30;;;;;;;22.63;12.97;;;5.20;99.90;;;;;;5072015;28;20498;-79
2022/11/10 00:30:57;;;;;;;18.33;13.93;;;5.30;99.90;;;;;;5077409;28;20487;-79
2022/11/10 00:33:24;;;;;;;19.40;13.07;;;5.20;99.90;;;;;;5068704;28;20462;-79
2022/11/10 00:35:51;;;;;;;17.30;12.50;;;5.20;99.90;;;;;;5070935;28;20490;-79
2022/11/10 00:38:18;;;;;;;16.27;10.63;;;5.30;99.90;;;;;;5081770;28;20456;-80
2022/11/10 00:40:45;;;;;;;17.97;12.73;;;5.30;99.90;;;;;;5068589;28;20538;-79
2022/11/10 00:43:13;;;;;;;15.43;11.60;;;5.30;99.90;;;;;;5070241;28;20447;-79
2022/11/10 00:45:43;;;;;;;15.40;11.57;;;5.30;99.90;;;;;;5078246;28;20938;-79
2022/11/10 00:48:10;;;;;;;17.60;11.03;;;5.30;99.90;;;;;;5067985;28;20451;-79
2022/11/10 00:50:37;;;;;;;17.93;12.37;;;5.50;99.90;;;;;;5071145;28;20502;-79
2022/11/10 00:53:04;;;;;;;14.80;10.77;;;5.50;99.90;;;;;;5068219;28;20785;-79
2022/11/10 00:55:31;;;;;;;19.13;11.43;;;5.50;99.90;;;;;;5076332;28;20877;-79
2022/11/10 00:57:58;;;;;;;13.77;10.80;;;5.50;99.90;;;;;;5075345;28;20984;-79
2022/11/10 01:00:25;;;;;;;11.90;9.83;;;5.50;99.90;;;;;;5069778;28;20910;-79
2022/11/10 01:02:53;;;;;;;14.53;9.80;;;5.50;99.90;;;;;;5072222;28;21279;-79
2022/11/10 01:05:21;;;;;;;17.37;11.00;;;5.40;99.90;;;;;;5068211;28;20456;-77
2022/11/10 01:07:48;;;;;;;12.50;9.80;;;5.40;99.90;;;;;;5075636;28;20460;-79
2022/11/10 01:10:16;;;;;;;12.80;9.57;;;5.60;99.90;;;;;;5079337;28;20495;-79
2022/11/10 01:12:43;;;;;;;10.87;9.27;;;5.50;99.90;;;;;;5077797;28;20920;-79
2022/11/10 01:15:10;;;;;;;13.00;10.33;;;5.40;99.90;;;;;;5071692;28;20460;-79
2022/11/10 01:17:37;;;;;;;12.00;9.43;;;5.50;99.90;;;;;;5080232;28;21927;-79
2022/11/10 01:20:07;;;;;;;11.30;8.60;;;5.50;99.90;;;;;;5072728;28;20445;-79
2022/11/10 01:22:34;;;;;;;9.33;7.43;;;5.50;99.90;;;;;;5073997;28;20462;-79
2022/11/10 01:25:01;;;;;;;10.77;7.57;;;5.60;99.90;;;;;;5072322;28;20497;-79
2022/11/10 01:27:28;;;;;;;13.10;8.10;;;5.60;99.90;;;;;;5072102;28;20517;-79
2022/11/10 01:29:55;;;;;;;8.90;7.70;;;5.60;99.90;;;;;;5077616;28;20490;-79
2022/11/10 01:32:22;;;;;;;10.77;6.90;;;5.70;99.90;;;;;;5082175;28;20451;-79
2022/11/10 01:34:49;;;;;;;6.90;5.97;;;5.70;99.90;;;;;;5074053;28;20466;-79
2022/11/10 01:37:18;;;;;;;7.53;6.70;;;5.70;99.90;;;;;;5083827;28;20567;-79
2022/11/10 01:39:45;;;;;;;10.90;6.13;;;5.70;99.90;;;;;;5082315;28;20466;-79
2022/11/10 01:42:12;;;;;;;7.87;7.10;;;5.80;99.90;;;;;;5084673;28;20470;-79
2022/11/10 01:44:41;;;;;;;10.70;6.57;;;5.80;99.90;;;;;;5077687;28;20550;-79
2022/11/10 01:47:08;;;;;;;8.10;5.80;;;5.80;99.90;;;;;;5083596;28;20966;-79
2022/11/10 01:49:36;;;;;;;7.10;6.30;;;5.70;99.90;;;;;;5083109;28;20470;-79
2022/11/10 01:52:09;;;;;;;7.23;6.07;;;5.70;99.90;;;;;;5082618;28;20529;-79
2022/11/10 01:54:40;;;;;;;6.30;5.70;;;5.70;99.90;;;;;;5079909;28;20459;-79
2022/11/10 01:57:11;;;;;;;5.20;4.70;;;5.80;99.90;;;;;;5070608;28;20603;-79
2022/11/10 01:59:43;;;;;;;6.97;4.63;;;5.80;99.90;;;;;;5075499;28;20470;-79
2022/11/10 02:02:17;;;;;;;4.80;4.40;;;5.70;99.90;;;;;;5083050;28;20496;-78
2022/11/10 02:04:45;;;;;;;5.50;4.20;;;5.70;99.90;;;;;;5083683;28;20526;-78
2022/11/10 02:07:12;;;;;;;5.63;4.70;;;5.70;99.90;;;;;;5081909;28;20463;-79
2022/11/10 02:09:40;;;;;;;5.40;4.90;;;5.80;99.90;;;;;;5074075;28;20462;-79
2022/11/10 02:12:07;;;;;;;5.67;5.13;;;5.90;99.90;;;;;;5078034;28;20456;-78
2022/11/10 02:14:34;;;;;;;6.07;5.17;;;5.90;99.90;;;;;;5080522;28;20481;-79
2022/11/10 02:17:01;;;;;;;6.20;5.60;;;5.90;99.90;;;;;;5082715;28;20481;-79
2022/11/10 02:19:28;;;;;;;6.23;5.30;;;5.80;99.90;;;;;;5082296;28;20470;-79
2022/11/10 02:21:57;;;;;;;5.40;4.67;;;5.80;99.90;;;;;;5079148;28;20466;-78
2022/11/10 02:24:24;;;;;;;5.57;4.97;;;5.90;99.90;;;;;;5080370;28;20450;-79
2022/11/10 02:26:54;;;;;;;4.33;3.93;;;6.00;99.90;;;;;;5079663;28;20473;-79
2022/11/10 02:29:22;;;;;;;4.47;4.07;;;5.90;99.90;;;;;;5077279;28;20484;-79
2022/11/10 02:31:49;;;;;;;7.30;4.37;;;5.90;99.90;;;;;;5074726;28;20486;-79
2022/11/10 02:34:16;;;;;;;4.83;4.37;;;5.80;99.90;;;;;;5080493;28;20472;-79
2022/11/10 02:36:42;;;;;;;3.80;3.50;;;5.80;99.90;;;;;;5075706;28;20952;-79
2022/11/10 02:39:11;;;;;;;4.63;4.20;;;5.80;99.90;;;;;;5083721;28;20516;-79
2022/11/10 02:41:38;;;;;;;4.03;3.73;;;5.80;99.90;;;;;;5080886;28;20950;-79
2022/11/10 02:44:06;;;;;;;4.57;3.67;;;5.80;99.90;;;;;;5083088;28;20594;-79
2022/11/10 02:46:36;;;;;;;5.37;3.63;;;5.90;99.90;;;;;;5082154;28;20447;-79
2022/11/10 02:49:03;;;;;;;4.33;3.73;;;5.90;99.90;;;;;;5082488;28;20558;-79
2022/11/10 02:51:30;;;;;;;4.43;4.07;;;5.90;99.90;;;;;;5075769;28;20949;-78
2022/11/10 02:53:57;;;;;;;4.23;3.50;;;5.90;99.90;;;;;;5060320;28;20573;-78
2022/11/10 02:56:25;;;;;;;4.33;3.50;;;5.90;99.90;;;;;;5076078;28;20495;-78
2022/11/10 02:58:52;;;;;;;3.83;3.33;;;5.90;99.90;;;;;;5067659;28;20517;-78
2022/11/10 03:01:20;;;;;;;3.90;3.60;;;5.90;99.90;;;;;;5065206;28;20490;-78
2022/11/10 03:03:47;;;;;;;4.20;3.80;;;5.90;99.90;;;;;;5067371;28;20520;-78
2022/11/10 03:06:14;;;;;;;4.00;3.60;;;5.90;99.90;;;;;;5067909;28;20466;-78
2022/11/10 03:08:41;;;;;;;4.23;3.83;;;5.90;99.90;;;;;;5075304;28;20550;-78
2022/11/10 03:11:08;;;;;;;4.53;3.90;;;5.90;99.90;;;;;;5080492;28;20458;-78
2022/11/10 03:13:36;;;;;;;3.43;2.80;;;5.90;99.90;;;;;;5073405;28;20467;-79
2022/11/10 03:16:03;;;;;;;3.53;3.33;;;5.90;99.90;;;;;;5082956;28;20471;-78
2022/11/10 03:18:30;;;;;;;4.27;3.73;;;5.80;99.90;;;;;;5073322;28;21050;-78
2022/11/10 03:20:57;;;;;;;4.83;4.33;;;5.70;99.90;;;;;;5080904;28;20522;-79
2022/11/10 03:23:24;;;;;;;4.20;3.80;;;5.70;99.90;;;;;;5094282;28;20863;-79
2022/11/10 03:25:51;;;;;;;4.30;3.53;;;5.70;99.90;;;;;;5082727;28;20471;-79
2022/11/10 03:28:18;;;;;;;3.93;3.53;;;5.80;99.90;;;;;;5082406;28;20486;-79
2022/11/10 03:30:47;;;;;;;6.10;4.40;;;5.80;99.90;;;;;;5074632;28;20491;-79
2022/11/10 03:33:14;;;;;;;5.80;3.87;;;5.80;99.90;;;;;;5082389;28;20854;-79
2022/11/10 03:35:40;;;;;;;4.60;4.20;;;5.90;99.90;;;;;;5062446;28;20551;-79
2022/11/10 03:38:07;;;;;;;5.60;3.93;;;5.90;99.90;;;;;;5064134;28;20522;-79
2022/11/10 03:40:34;;;;;;;3.73;3.07;;;5.90;99.90;;;;;;5061366;28;20462;-80
2022/11/10 03:43:01;;;;;;;4.83;4.43;;;5.90;99.90;;;;;;5064645;28;20938;-79
2022/11/10 03:45:28;;;;;;;5.50;5.00;;;5.90;99.90;;;;;;5059019;28;20501;-79
2022/11/10 03:47:57;;;;;;;6.60;4.60;;;5.90;99.90;;;;;;5078603;28;20520;-80
2022/11/10 03:50:24;;;;;;;6.00;5.33;;;5.90;99.90;;;;;;5083477;28;20470;-79
2022/11/10 03:52:50;;;;;;;7.33;4.97;;;5.90;99.90;;;;;;5081485;28;21099;-79
2022/11/10 03:55:19;;;;;;;5.60;5.03;;;5.80;99.90;;;;;;5077802;28;20954;-79
2022/11/10 03:57:46;;;;;;;5.60;4.90;;;5.90;99.90;;;;;;5079310;28;20489;-79
2022/11/10 04:00:14;;;;;;;5.77;5.10;;;5.90;99.90;;;;;;5086527;28;20479;-79
2022/11/10 04:02:41;;;;;;;6.60;4.20;;;6.00;99.90;;;;;;5079311;28;20468;-79
2022/11/10 04:10:43;;;;;;;5.87;3.77;;;6.10;99.90;;;;;;5072981;28;21064;-79
2022/11/10 04:15:55;;;;;;;4.20;3.90;;;6.00;99.90;;;;;;5076577;28;20991;-79
2022/11/10 04:18:28;;;;;;;4.23;3.70;;;6.10;99.90;;;;;;5073165;28;20565;-79
2022/11/10 04:20:58;;;;;;;3.37;3.07;;;6.10;99.90;;;;;;5078997;28;20887;-79
2022/11/10 04:23:27;;;;;;;4.00;3.43;;;6.10;99.90;;;;;;5078974;28;20459;-79
2022/11/10 04:28:41;;;;;;;4.57;4.07;;;6.10;99.90;;;;;;5072503;28;20530;-79
2022/11/10 04:31:08;;;;;;;4.07;3.67;;;6.10;99.90;;;;;;5078437;28;20904;-80
2022/11/10 04:33:35;;;;;;;4.63;4.23;;;6.10;99.90;;;;;;5070998;28;20548;-79
2022/11/10 04:36:04;;;;;;;4.23;3.93;;;6.10;99.90;;;;;;5082578;28;20481;-79
2022/11/10 04:38:32;;;;;;;4.13;3.83;;;6.10;99.90;;;;;;5074338;28;20514;-79
2022/11/10 04:40:59;;;;;;;3.63;3.33;;;6.10;99.90;;;;;;5080439;28;20471;-79
2022/11/10 04:43:26;;;;;;;3.80;3.47;;;6.20;99.90;;;;;;5080693;28;20524;-79
2022/11/10 04:45:53;;;;;;;4.50;3.67;;;6.10;99.90;;;;;;5086020;28;20454;-80
2022/11/10 04:48:21;;;;;;;7.30;3.80;;;6.20;99.90;;;;;;5085279;28;20490;-80
2022/11/10 04:50:48;;;;;;;3.20;2.83;;;6.30;99.90;;;;;;5070153;28;20527;-79
2022/11/10 04:53:16;;;;;;;5.60;3.60;;;6.30;99.90;;;;;;5084221;28;20992;-79
2022/11/10 04:55:44;;;;;;;4.30;3.60;;;6.30;99.90;;;;;;5073476;28;20462;-79
2022/11/10 04:58:11;;;;;;;5.57;5.17;;;6.20;99.90;;;;;;5071063;28;21221;-79
2022/11/10 05:00:39;;;;;;;3.73;3.43;;;6.30;99.90;;;;;;5082647;28;20500;-79
2022/11/10 05:03:08;;;;;;;3.73;3.33;;;6.30;99.90;;;;;;5075385;28;20467;-79
2022/11/10 05:05:35;;;;;;;3.67;3.30;;;6.30;99.90;;;;;;5081045;28;21101;-79
2022/11/10 05:08:02;;;;;;;6.80;4.83;;;6.30;99.90;;;;;;5087269;28;20458;-79
2022/11/10 05:10:31;;;;;;;4.10;3.80;;;6.30;99.90;;;;;;5083300;28;20465;-79
2022/11/10 05:12:58;;;;;;;4.00;3.70;;;6.30;99.90;;;;;;5073890;28;21203;-79
2022/11/10 05:15:26;;;;;;;4.10;3.80;;;6.30;99.90;;;;;;5077227;28;20965;-79
2022/11/10 05:17:54;;;;;;;3.57;3.33;;;6.30;99.90;;;;;;5082676;28;20490;-79
2022/11/10 05:20:23;;;;;;;4.33;3.97;;;6.30;99.90;;;;;;5074098;28;20458;-80
2022/11/10 05:25:35;;;;;;;5.00;4.53;;;6.20;99.90;;;;;;5081968;28;20449;-79
2022/11/10 05:28:02;;;;;;;3.80;3.50;;;6.20;99.90;;;;;;5077181;28;20556;-80
2022/11/10 05:30:29;;;;;;;3.60;3.30;;;6.30;99.90;;;;;;5077124;28;20455;-80
2022/11/10 05:32:56;;;;;;;6.20;4.50;;;6.30;99.90;;;;;;5082776;28;20465;-80
2022/11/10 05:35:23;;;;;;;4.63;4.23;;;6.40;99.90;;;;;;5080824;28;20456;-80
2022/11/10 05:37:50;;;;;;;4.17;3.77;;;6.40;99.90;;;;;;5077186;28;20570;-80
2022/11/10 05:40:17;;;;;;;5.40;4.90;;;6.40;99.90;;;;;;5084301;28;20511;-80
2022/11/10 05:42:46;;;;;;;4.60;3.90;;;6.60;99.90;;;;;;5068303;28;20916;-80
2022/11/10 05:45:14;;;;;;;5.33;4.17;;;6.40;99.90;;;;;;5077094;28;20933;-80
2022/11/10 05:47:41;;;;;;;8.17;6.13;;;6.50;99.90;;;;;;5073443;28;20536;-80
2022/11/10 05:50:09;;;;;;;7.27;4.27;;;6.40;99.90;;;;;;5083322;28;20492;-79
2022/11/10 05:52:39;;;;;;;6.00;5.10;;;6.50;99.90;;;;;;5080913;28;20540;-79
2022/11/10 05:55:06;;;;;;;6.77;6.17;;;6.50;99.90;;;;;;5076891;28;21119;-79
2022/11/10 05:57:33;;;;;;;5.07;4.60;;;6.50;99.90;;;;;;5074438;28;20480;-79
2022/11/10 06:00:02;;;;;;;4.47;4.17;;;6.50;99.90;;;;;;5075480;28;20466;-80
2022/11/10 06:02:29;;;;;;;4.53;4.13;;;6.50;99.90;;;;;;5082069;28;21131;-80
2022/11/10 06:04:56;;;;;;;5.30;4.77;;;6.50;99.90;;;;;;5079940;28;20896;-79
2022/11/10 06:07:23;;;;;;;4.73;4.33;;;6.60;99.90;;;;;;5065566;28;20459;-80
2022/11/10 06:09:50;;;;;;;6.70;5.43;;;6.50;99.90;;;;;;5063245;28;20475;-80
2022/11/10 06:12:17;;;;;;;6.20;5.70;;;6.60;99.90;;;;;;5071231;28;20467;-81
2022/11/10 06:14:44;;;;;;;7.47;5.23;;;6.60;99.90;;;;;;5067331;28;20533;-81
2022/11/10 06:17:12;;;;;;;4.77;4.10;;;6.60;99.90;;;;;;5072477;28;20540;-81
2022/11/10 06:19:39;;;;;;;4.03;3.60;;;6.70;99.90;;;;;;5066008;28;20850;-79
2022/11/10 06:22:06;;;;;;;4.60;4.20;;;6.70;99.90;;;;;;5065274;28;20528;-80
2022/11/10 06:24:33;;;;;;;6.67;5.97;;;6.70;99.90;;;;;;5062984;28;20526;-80
2022/11/10 06:27:00;;;;;;;5.27;4.77;;;6.70;99.90;;;;;;5078121;28;20515;-79
2022/11/10 06:29:27;;;;;;;4.77;4.13;;;6.70;99.90;;;;;;5071317;28;20475;-79
2022/11/10 06:31:54;;;;;;;3.63;3.33;;;6.80;99.90;;;;;;5074818;28;20468;-80
2022/11/10 06:34:22;;;;;;;3.63;3.10;;;6.70;99.90;;;;;;5082316;28;20451;-79
2022/11/10 06:36:49;;;;;;;4.53;4.13;;;6.70;99.90;;;;;;5071263;28;20467;-79
2022/11/10 06:39:16;;;;;;;4.43;4.03;;;6.80;99.90;;;;;;5085705;28;21000;-80
2022/11/10 06:41:43;;;;;;;5.07;3.63;;;6.90;99.90;;;;;;5086893;28;20488;-80
2022/11/10 06:44:11;;;;;;;6.00;5.40;;;6.90;99.90;;;;;;5087497;28;20456;-80
2022/11/10 06:46:38;;;;;;;6.10;5.00;;;6.80;99.90;;;;;;5081850;28;21185;-80
2022/11/10 06:49:05;;;;;;;5.93;5.33;;;6.80;99.90;;;;;;5078540;28;20469;-80
2022/11/10 06:51:33;;;;;;;5.40;4.80;;;6.90;99.90;;;;;;5078925;28;20464;-80
2022/11/10 06:54:00;;;;;;;9.80;5.97;;;6.90;99.90;;;;;;5085622;28;20944;-80
2022/11/10 06:56:27;;;;;;;5.53;5.00;;;6.90;99.90;;;;;;5072556;28;20938;-80
2022/11/10 06:58:54;;;;;;;6.80;5.10;;;6.90;99.90;;;;;;5067673;28;20489;-80
2022/11/10 07:01:25;;;;;;;5.50;5.00;;;6.80;99.90;;;;;;5071912;28;20460;-80
2022/11/10 07:03:52;;;;;;;5.00;4.50;;;6.90;99.90;;;;;;5065533;28;20470;-80
2022/11/10 07:06:19;;;;;;;4.77;4.37;;;6.90;99.90;;;;;;5081615;28;20560;-79
2022/11/10 07:08:48;;;;;;;5.47;4.93;;;6.80;99.90;;;;;;5079601;28;20451;-80
2022/11/10 07:11:15;;;;;;;7.87;7.10;;;6.80;99.90;;;;;;5081255;28;21129;-79
2022/11/10 07:13:42;;;;;;;8.30;6.63;;;6.80;99.90;;;;;;5073694;28;20950;-80
2022/11/10 07:16:10;;;;;;;10.70;9.70;;;6.80;99.90;;;;;;5080309;28;20538;-79
2022/11/10 07:18:37;;;;;;;11.63;10.03;;;6.90;99.90;;;;;;5062631;28;20483;-81
2022/11/10 07:21:05;;;;;;;14.43;10.50;;;6.90;99.90;;;;;;5064592;28;20563;-80
2022/11/10 07:23:33;;;;;;;11.20;8.20;;;6.90;99.90;;;;;;5067645;28;20469;-80
2022/11/10 07:26:02;;;;;;;12.17;10.60;;;6.90;99.90;;;;;;5069630;28;20503;-80
2022/11/10 07:28:30;;;;;;;14.13;11.77;;;7.00;99.90;;;;;;5063597;28;20553;-80
2022/11/10 07:30:57;;;;;;;12.17;10.90;;;7.00;99.90;;;;;;5064467;28;20471;-81
2022/11/10 07:33:23;;;;;;;12.10;9.33;;;7.10;99.90;;;;;;5066897;28;20528;-81
2022/11/10 07:35:55;;;;;;;9.73;8.73;;;7.20;99.90;;;;;;5066104;28;21237;-81
2022/11/10 07:38:22;;;;;;;13.00;8.80;;;7.30;99.90;;;;;;5062154;28;20496;-81
2022/11/10 07:40:51;;;;;;;10.70;9.20;;;7.40;99.90;;;;;;5062505;28;20457;-81
2022/11/10 07:43:20;;;;;;;13.80;9.17;;;7.40;99.90;;;;;;5066607;28;20462;-81
2022/11/10 07:45:49;;;;;;;12.33;9.30;;;7.40;99.90;;;;;;5064733;28;20505;-82
2022/11/10 07:48:16;;;;;;;9.80;8.80;;;7.50;99.90;;;;;;5064165;28;20466;-80
2022/11/10 07:50:44;;;;;;;10.37;8.40;;;7.60;99.90;;;;;;5066366;28;21026;-80
2022/11/10 07:53:12;;;;;;;12.87;9.00;;;7.70;99.90;;;;;;5063686;28;21144;-79
2022/11/10 07:55:41;;;;;;;9.37;8.33;;;7.80;99.90;;;;;;5067553;28;20466;-81
2022/11/10 07:58:09;;;;;;;10.77;8.63;;;7.90;99.90;;;;;;5060176;28;20544;-80
2022/11/10 08:00:38;;;;;;;9.93;8.83;;;7.80;99.90;;;;;;5053336;28;20486;-80
2022/11/10 08:03:07;;;;;;;11.33;10.03;;;7.90;99.90;;;;;;5057898;28;20462;-80
2022/11/10 08:05:34;;;;;;;9.47;8.40;;;8.00;99.90;;;;;;5067753;28;20870;-80
2022/11/10 08:08:01;;;;;;;18.80;9.53;;;7.90;99.90;;;;;;5069750;28;20451;-80
2022/11/10 08:10:29;;;;;;;78.83;46.80;;;7.90;99.90;;;;;;5070222;28;20521;-80
2022/11/10 08:12:57;;;;;;;52.77;37.27;;;8.10;99.90;;;;;;5068208;28;20560;-79
2022/11/10 08:15:25;;;;;;;345.10;207.70;;;8.20;99.90;;;;;;5072292;28;21232;-78
2022/11/10 08:17:59;;;;;;;113.17;88.80;;;8.30;99.90;;;;;;5069677;28;20474;-79
2022/11/10 08:20:26;;;;;;;21.27;19.17;;;8.30;99.90;;;;;;5075651;28;20550;-79
2022/11/10 08:22:58;;;;;;;19.13;17.23;;;8.20;99.90;;;;;;5068908;28;21685;-80
2022/11/10 08:25:25;;;;;;;11.67;7.60;;;8.20;99.90;;;;;;5067642;28;20975;-79
2022/11/10 08:27:57;;;;;;;10.80;9.80;;;8.20;99.90;;;;;;5067720;28;20511;-79
2022/11/10 08:30:24;;;;;;;10.63;8.80;;;8.20;99.90;;;;;;5077852;28;20451;-79
2022/11/10 08:32:55;;;;;;;8.63;7.80;;;8.20;99.90;;;;;;5074039;28;20467;-80
2022/11/10 08:35:24;;;;;;;8.13;7.40;;;8.20;99.90;;;;;;5078827;28;20519;-79
2022/11/10 08:37:51;;;;;;;9.07;7.83;;;8.20;99.90;;;;;;5078699;28;20466;-79
2022/11/10 08:40:19;;;;;;;13.43;8.80;;;8.20;99.90;;;;;;5073995;28;20463;-79
2022/11/10 08:42:46;;;;;;;10.00;9.00;;;8.20;99.90;;;;;;5069751;28;20469;-79
2022/11/10 08:45:13;;;;;;;21.03;18.90;;;8.30;99.90;;;;;;5073229;28;20976;-79
2022/11/10 08:47:40;;;;;;;13.33;9.70;;;8.30;99.90;;;;;;5076547;28;20508;-78
2022/11/10 08:50:09;;;;;;;15.57;10.60;;;8.30;99.90;;;;;;5070502;28;20520;-78
2022/11/10 08:52:36;;;;;;;12.27;8.83;;;8.20;99.90;;;;;;5071212;28;20462;-79
2022/11/10 08:55:04;;;;;;;9.27;8.23;;;8.40;99.90;;;;;;5076861;28;20628;-78
2022/11/10 08:57:31;;;;;;;13.73;9.20;;;8.40;99.90;;;;;;5078606;28;20469;-79
2022/11/10 08:59:58;;;;;;;10.70;9.50;;;8.40;99.90;;;;;;5068120;28;20552;-78
2022/11/10 09:02:25;;;;;;;13.60;9.97;;;8.40;99.90;;;;;;5077458;28;21095;-78
2022/11/10 09:04:52;;;;;;;12.50;10.47;;;8.40;99.90;;;;;;5066585;28;20497;-77
2022/11/10 09:07:20;;;;;;;12.03;8.63;;;8.50;99.90;;;;;;5065363;28;20468;-80
2022/11/10 09:09:48;;;;;;;13.17;10.17;;;8.50;99.90;;;;;;5070396;28;20477;-78
2022/11/10 09:12:15;;;;;;;11.60;9.40;;;8.50;99.90;;;;;;5077295;28;20484;-79
2022/11/10 09:14:42;;;;;;;15.00;12.17;;;8.50;99.90;;;;;;5074875;28;21071;-79
2022/11/10 09:17:09;;;;;;;11.40;10.17;;;8.50;99.90;;;;;;5070905;28;20495;-80
2022/11/10 09:19:36;;;;;;;11.73;9.43;;;8.50;99.90;;;;;;5065310;28;20575;-79
2022/11/10 09:22:03;;;;;;;11.73;10.40;;;8.50;99.90;;;;;;5073222;28;21080;-79
2022/11/10 09:24:31;;;;;;;13.23;11.77;;;8.50;99.90;;;;;;5068924;28;20528;-79
2022/11/10 09:26:59;;;;;;;13.70;11.40;;;8.50;99.90;;;;;;5069237;28;21211;-79
2022/11/10 09:29:26;;;;;;;13.73;10.60;;;8.50;99.90;;;;;;5062144;28;20543;-80
2022/11/10 09:31:52;;;;;;;13.93;11.50;;;8.50;99.90;;;;;;5060922;28;20954;-80
2022/11/10 09:34:19;;;;;;;21.90;16.03;;;8.50;99.90;;;;;;5061100;28;20491;-79
2022/11/10 09:36:46;;;;;;;23.00;18.37;;;8.50;99.90;;;;;;5071334;28;20543;-79
2022/11/10 09:39:14;;;;;;;21.77;18.27;;;8.50;99.90;;;;;;5075624;28;20486;-80
2022/11/10 09:41:43;;;;;;;21.63;18.43;;;8.50;99.90;;;;;;5076154;28;20549;-79
2022/11/10 09:44:18;;;;;;;20.17;15.43;;;8.50;99.90;;;;;;5076434;28;20471;-79
2022/11/10 09:46:50;;;;;;;19.20;15.60;;;8.50;99.90;;;;;;5077621;28;20452;-79
2022/11/10 09:49:29;;;;;;;17.80;14.57;;;8.50;99.90;;;;;;5077143;28;20470;-79
2022/11/10 09:51:58;;;;;;;17.63;14.50;;;8.60;99.90;;;;;;5075189;28;20458;-80
2022/11/10 09:54:38;;;;;;;13.43;12.03;;;8.60;99.90;;;;;;5072886;28;20546;-80
2022/11/10 09:57:11;;;;;;;19.83;12.00;;;8.70;99.90;;;;;;5070598;28;20760;-80
2022/11/10 09:59:38;;;;;;;13.80;12.30;;;8.80;99.90;;;;;;5077323;28;20493;-80
2022/11/10 10:02:16;;;;;;;14.23;12.20;;;8.90;99.90;;;;;;5077332;28;20491;-80
2022/11/10 10:05:03;;;;;;;19.80;12.63;;;8.90;99.90;;;;;;5072502;28;20509;-80
2022/11/10 10:07:37;;;;;;;14.30;12.40;;;9.10;99.90;;;;;;5079755;28;20467;-80
2022/11/10 10:10:13;;;;;;;12.97;11.60;;;9.20;99.90;;;;;;5077750;28;20517;-80
2022/11/10 10:12:57;;;;;;;14.10;12.47;;;9.30;99.90;;;;;;5076527;28;20455;-80
2022/11/10 10:15:34;;;;;;;12.30;11.00;;;9.30;99.90;;;;;;5070520;28;20509;-80
2022/11/10 10:18:14;;;;;;;15.90;12.30;;;9.50;99.90;;;;;;5077065;28;20462;-80
2022/11/10 10:20:51;;;;;;;13.37;11.23;;;9.60;99.90;;;;;;5087590;28;21275;-80
2022/11/10 10:23:25;;;;;;;12.97;11.00;;;9.70;99.90;;;;;;5079329;28;20496;-80
2022/11/10 10:25:54;;;;;;;13.77;11.33;;;9.60;99.90;;;;;;5073572;28;20534;-80
2022/11/10 10:28:28;;;;;;;16.20;12.77;;;9.60;99.90;;;;;;5074012;28;20543;-80
2022/11/10 10:31:07;;;;;;;12.87;10.40;;;9.70;99.90;;;;;;5069365;28;20486;-80
2022/11/10 10:33:34;;;;;;;12.00;10.90;;;9.80;99.90;;;;;;5067582;28;20460;-80
2022/11/10 10:36:08;;;;;;;12.07;10.83;;;9.80;99.90;;;;;;5070483;28;20450;-80
2022/11/10 10:38:39;;;;;;;10.67;9.63;;;9.90;99.90;;;;;;5074483;28;20467;-80
2022/11/10 10:41:15;;;;;;;10.83;9.73;;;9.90;99.90;;;;;;5071157;28;20455;-80
2022/11/10 10:43:47;;;;;;;13.53;10.00;;;10.00;99.90;;;;;;5070440;28;20491;-80
2022/11/10 10:46:15;;;;;;;14.47;11.00;;;10.00;99.90;;;;;;5072373;28;20517;-80
2022/11/10 10:48:43;;;;;;;9.87;8.87;;;10.10;99.90;;;;;;5068617;28;20487;-80
2022/11/10 10:51:10;;;;;;;10.93;9.80;;;10.10;99.90;;;;;;5072354;28;20900;-80
2022/11/10 10:53:46;;;;;;;10.07;9.10;;;10.10;99.90;;;;;;5074456;28;20476;-80
2022/11/10 10:56:19;;;;;;;12.33;11.00;;;10.10;99.90;;;;;;5090253;28;20548;-80
2022/11/10 10:58:54;;;;;;;11.07;9.73;;;10.00;99.90;;;;;;5072602;28;20497;-80
2022/11/10 11:01:29;;;;;;;10.67;9.63;;;10.00;99.90;;;;;;5077006;28;20477;-80
2022/11/10 11:03:56;;;;;;;10.50;9.53;;;10.00;99.90;;;;;;5083435;28;20465;-79
2022/11/10 11:06:26;;;;;;;13.37;10.13;;;9.80;99.90;;;;;;5084457;28;21185;-80
2022/11/10 11:08:56;;;;;;;11.63;10.60;;;9.90;99.90;;;;;;5083038;28;20505;-80
2022/11/10 11:11:26;;;;;;;12.67;10.80;;;10.10;99.90;;;;;;5093371;28;20496;-80
2022/11/10 11:14:12;;;;;;;11.60;10.57;;;10.30;99.90;;;;;;5069507;28;20539;-79
2022/11/10 11:16:46;;;;;;;12.20;9.70;;;10.50;99.90;;;;;;5081484;28;20467;-79
2022/11/10 11:19:14;;;;;;;10.07;8.90;;;10.60;99.90;;;;;;5073262;28;20481;-79
2022/11/10 11:21:50;;;;;;;13.10;10.10;;;10.60;99.90;;;;;;5075593;28;20853;-80
2022/11/10 11:24:27;;;;;;;15.07;10.30;;;10.50;99.90;;;;;;5070446;28;20483;-79
2022/11/10 11:26:59;;;;;;;11.63;10.40;;;10.60;99.90;;;;;;5073558;28;20476;-79
2022/11/10 11:29:52;;;;;;;15.70;14.20;;;10.70;99.90;;;;;;5071402;28;20473;-80
2022/11/10 11:32:31;;;;;;;11.33;10.23;;;10.60;99.90;;;;;;5076303;28;20455;-79
2022/11/10 11:35:07;;;;;;;11.60;9.80;;;10.50;99.90;;;;;;5078345;28;20551;-79
2022/11/10 11:37:41;;;;;;;14.20;12.70;;;10.50;99.90;;;;;;5070750;28;20459;-80
2022/11/10 11:40:19;;;;;;;9.63;8.73;;;10.50;99.90;;;;;;5077066;28;20567;-80
2022/11/10 11:42:56;;;;;;;9.77;8.53;;;10.50;99.90;;;;;;5065090;28;20483;-80
2022/11/10 11:45:33;;;;;;;11.60;9.90;;;10.50;99.90;;;;;;5075608;28;20465;-80
2022/11/10 11:48:17;;;;;;;10.80;9.70;;;10.80;99.90;;;;;;5069055;28;20481;-80
2022/11/10 11:50:51;;;;;;;11.53;10.33;;;10.70;99.90;;;;;;5073456;28;20455;-80
2022/11/10 11:53:34;;;;;;;10.53;9.50;;;10.80;99.90;;;;;;5090068;28;20519;-80
2022/11/10 11:56:10;;;;;;;14.90;10.30;;;10.90;99.90;;;;;;5074305;28;20925;-80
2022/11/10 11:58:44;;;;;;;12.97;11.13;;;10.90;99.90;;;;;;5074475;28;20556;-80
2022/11/10 12:01:26;;;;;;;10.57;9.53;;;10.70;99.90;;;;;;5065537;28;21004;-80
2022/11/10 12:04:21;;;;;;;13.90;10.80;;;10.60;99.90;;;;;;5063598;28;20864;-80
2022/11/10 12:07:01;;;;;;;17.27;12.63;;;10.60;99.90;;;;;;5077001;28;20499;-80
2022/11/10 12:09:39;;;;;;;13.90;11.33;;;10.50;99.90;;;;;;5070806;28;20455;-79
2022/11/10 12:12:31;;;;;;;13.67;12.30;;;10.50;99.90;;;;;;5075392;28;20580;-79
2022/11/10 12:15:04;;;;;;;18.53;11.93;;;10.50;99.90;;;;;;5079212;28;20542;-79
2022/11/10 12:17:43;;;;;;;14.43;12.93;;;10.50;99.90;;;;;;5081594;28;20969;-79
2022/11/10 12:20:23;;;;;;;17.73;11.53;;;10.40;99.90;;;;;;5072653;28;20573;-80
2022/11/10 12:22:59;;;;;;;12.47;11.17;;;10.40;99.90;;;;;;5069989;28;20541;-80
2022/11/10 12:25:31;;;;;;;12.50;11.20;;;10.50;99.90;;;;;;5076532;28;21384;-79
2022/11/10 12:28:05;;;;;;;13.43;11.43;;;10.50;99.90;;;;;;5076578;28;20576;-79
2022/11/10 12:30:33;;;;;;;15.70;11.70;;;10.40;99.90;;;;;;5074794;28;20460;-79
2022/11/10 12:33:07;;;;;;;14.23;11.30;;;10.30;99.90;;;;;;5071119;28;20455;-79
2022/11/10 12:35:38;;;;;;;17.50;12.73;;;10.50;99.90;;;;;;5082343;28;20478;-79
2022/11/10 12:38:08;;;;;;;13.00;11.77;;;10.70;99.90;;;;;;5070086;28;20525;-79
2022/11/10 12:40:39;;;;;;;14.00;11.33;;;10.80;99.90;;;;;;5074761;28;20483;-79
2022/11/10 12:43:13;;;;;;;13.40;10.57;;;10.80;99.90;;;;;;5075827;28;20523;-79
2022/11/10 12:45:45;;;;;;;11.17;9.70;;;10.90;99.90;;;;;;5079752;28;20475;-79
2022/11/10 12:48:15;;;;;;;13.40;10.63;;;11.00;99.90;;;;;;5073528;28;20517;-79
2022/11/10 12:50:50;;;;;;;11.43;10.27;;;11.10;99.90;;;;;;5081860;28;20946;-79
2022/11/10 12:53:22;;;;;;;13.40;11.23;;;11.10;99.90;;;;;;5080980;28;20515;-79
2022/11/10 12:55:55;;;;;;;12.10;10.50;;;11.20;99.90;;;;;;5071891;28;20547;-79
2022/11/10 12:58:22;;;;;;;12.07;10.77;;;11.50;99.90;;;;;;5081090;28;20496;-78
2022/11/10 13:00:57;;;;;;;13.87;10.40;;;11.70;99.90;;;;;;5074293;28;20479;-80
2022/11/10 13:03:29;;;;;;;9.47;8.57;;;11.80;99.90;;;;;;5077029;28;20474;-79
2022/11/10 13:05:58;;;;;;;11.37;10.27;;;11.90;99.90;;;;;;5080826;28;20475;-79
2022/11/10 13:08:35;;;;;;;10.53;8.97;;;12.10;99.90;;;;;;5081019;28;20463;-79
2022/11/10 13:11:07;;;;;;;11.37;9.20;;;12.20;99.90;;;;;;5087660;28;20458;-79
2022/11/10 13:13:44;;;;;;;10.87;9.77;;;12.60;99.90;;;;;;5078905;28;20469;-79
2022/11/10 13:16:52;;;;;;;10.33;9.07;;;12.80;99.90;;;;;;5074436;28;20475;-79